Terminal Aerodrome Forecast
Issued by NWS

Home | Current Version | Previous Version | Text Only | Print | Product List | Glossary On
Versions: 1 2 3 4 5 6 7 8 9 10 11 12 13 14 15
000
FTUS44 KLZK 311700
TAFLIT
TAF
KLIT 311720Z 3118/0118 12006KT P6SM VCSH SCT015 BKN025 OVC040
      TEMPO 3118/3122 5SM -RA BR BKN015
     FM312200 08005KT P6SM VCSH SCT025 OVC050
      TEMPO 0108/0112 3SM BR OVC025=

USA.gov is the U.S. government's official web portal to all federal, state and local government web resources and services.